Time;durP1;ratioP1;P1;durP2;ratioP2;P2;SDS_P1;SDS_P2;PMS_P1;PMS_P2;Temp;Humidity;BMP_temperature;BMP_pressure;BME280_temperature;BME280_humidity;BME280_pressure;Samples;Min_cycle;Max_cycle;Signal;HPM_P1;HPM_P2
2023/12/09 00:00:45;;;;;;;9.65;4.25;;;10.40;77.80;;;;;;5109923;28;20043;-55
2023/12/09 00:03:14;;;;;;;10.52;3.42;;;10.40;77.90;;;;;;5107860;28;20048;-53
2023/12/09 00:05:40;;;;;;;10.77;3.72;;;10.30;77.80;;;;;;5094365;28;20054;-56
2023/12/09 00:08:10;;;;;;;11.35;3.70;;;10.30;77.90;;;;;;5107833;28;20083;-54
2023/12/09 00:10:37;;;;;;;11.05;4.13;;;10.30;78.00;;;;;;5110269;28;20244;-53
2023/12/09 00:13:07;;;;;;;14.27;4.00;;;10.20;77.90;;;;;;5086233;28;20037;-51
2023/12/09 00:15:34;;;;;;;9.77;3.90;;;10.20;78.10;;;;;;5106058;28;20405;-54
2023/12/09 00:18:00;;;;;;;7.60;3.70;;;10.20;78.10;;;;;;5106900;28;20032;-51
2023/12/09 00:20:27;;;;;;;9.93;3.47;;;10.20;78.20;;;;;;5110198;28;20040;-52
2023/12/09 00:22:56;;;;;;;9.32;3.90;;;10.20;78.30;;;;;;5089354;28;20067;-53
2023/12/09 00:25:25;;;;;;;13.10;4.50;;;10.20;78.40;;;;;;5086963;28;20036;-51
2023/12/09 00:27:57;;;;;;;8.85;3.58;;;10.20;78.40;;;;;;5106306;28;20044;-51
2023/12/09 00:30:24;;;;;;;10.45;3.47;;;10.20;78.40;;;;;;5096118;28;20116;-51
2023/12/09 00:32:53;;;;;;;9.07;3.53;;;10.20;78.40;;;;;;5097991;28;20043;-51
2023/12/09 00:35:22;;;;;;;9.15;3.92;;;10.20;78.40;;;;;;5096998;28;20044;-52
2023/12/09 00:37:53;;;;;;;11.70;3.92;;;10.20;78.40;;;;;;5109523;28;20070;-52
2023/12/09 00:40:22;;;;;;;8.10;3.38;;;10.20;78.50;;;;;;5099813;28;20044;-56
2023/12/09 00:42:49;;;;;;;11.18;3.85;;;10.20;78.50;;;;;;5087928;28;20139;-56
2023/12/09 00:45:22;;;;;;;11.95;3.80;;;10.20;78.40;;;;;;5102455;28;20190;-57
2023/12/09 00:47:50;;;;;;;8.63;4.20;;;10.20;78.40;;;;;;5108877;28;20043;-54
2023/12/09 00:50:19;;;;;;;9.00;3.55;;;10.20;78.40;;;;;;5100757;28;20102;-55
2023/12/09 00:52:48;;;;;;;8.75;3.17;;;10.20;78.50;;;;;;5093636;28;20101;-56
2023/12/09 00:55:20;;;;;;;9.82;4.13;;;10.20;78.50;;;;;;5091645;28;20494;-53
2023/12/09 00:57:47;;;;;;;11.88;3.90;;;10.20;78.50;;;;;;5085090;28;20066;-56
2023/12/09 01:00:18;;;;;;;11.57;4.43;;;10.20;78.50;;;;;;5100857;28;20040;-55
2023/12/09 01:02:45;;;;;;;8.68;4.13;;;10.20;78.50;;;;;;5108364;28;20520;-55
2023/12/09 01:05:11;;;;;;;11.68;4.05;;;10.20;78.40;;;;;;5100811;28;20058;-55
2023/12/09 01:07:38;;;;;;;12.05;5.18;;;10.20;78.40;;;;;;5100123;28;20039;-51
2023/12/09 01:10:07;;;;;;;10.55;4.65;;;10.20;78.40;;;;;;5105223;28;20042;-56
2023/12/09 01:12:35;;;;;;;8.65;4.50;;;10.10;78.30;;;;;;5092146;28;20038;-54
2023/12/09 01:15:06;;;;;;;9.55;4.32;;;10.10;78.30;;;;;;5102823;28;20043;-55
2023/12/09 01:17:33;;;;;;;9.10;4.68;;;10.10;78.30;;;;;;5107292;28;20055;-55
2023/12/09 01:20:00;;;;;;;7.10;3.78;;;10.10;78.30;;;;;;5090753;28;20459;-56
2023/12/09 01:22:26;;;;;;;11.57;4.22;;;10.10;78.30;;;;;;5106951;28;20700;-56
2023/12/09 01:24:55;;;;;;;12.27;4.68;;;10.10;78.40;;;;;;5087698;28;20418;-52
2023/12/09 01:27:24;;;;;;;7.45;4.00;;;10.10;78.50;;;;;;5104441;28;20071;-54
2023/12/09 01:29:51;;;;;;;12.10;4.90;;;10.10;78.60;;;;;;5106078;28;20039;-55
2023/12/09 01:32:21;;;;;;;11.30;4.70;;;10.10;78.60;;;;;;5104711;28;20093;-56
2023/12/09 01:34:48;;;;;;;14.93;4.72;;;10.10;78.70;;;;;;5089444;27;20057;-56
2023/12/09 01:37:16;;;;;;;8.55;4.28;;;10.00;78.60;;;;;;5101520;28;20039;-56
2023/12/09 01:39:42;;;;;;;9.88;4.28;;;10.10;78.80;;;;;;5106312;28;20110;-57
2023/12/09 01:42:09;;;;;;;13.60;4.43;;;10.10;78.90;;;;;;5103876;28;20044;-55
2023/12/09 01:44:36;;;;;;;12.48;4.28;;;10.10;79.00;;;;;;5093099;28;20127;-56
2023/12/09 01:47:03;;;;;;;17.23;4.80;;;10.10;78.90;;;;;;5096350;28;20484;-56
2023/12/09 01:49:31;;;;;;;14.63;4.93;;;10.10;78.80;;;;;;5105452;28;20054;-56
2023/12/09 01:51:59;;;;;;;11.38;4.75;;;10.10;78.60;;;;;;5093382;28;20043;-55
2023/12/09 01:54:27;;;;;;;12.18;5.03;;;10.10;78.60;;;;;;5086769;28;20093;-56
2023/12/09 01:56:56;;;;;;;8.43;3.92;;;10.10;78.50;;;;;;5096349;28;20067;-56
2023/12/09 01:59:23;;;;;;;9.10;4.55;;;10.00;78.40;;;;;;5103705;28;20052;-56
2023/12/09 02:01:51;;;;;;;11.93;4.60;;;10.00;78.40;;;;;;5094402;28;20124;-56
2023/12/09 02:04:19;;;;;;;14.80;5.53;;;10.00;78.50;;;;;;5098021;28;20056;-55
2023/12/09 02:06:46;;;;;;;8.55;4.40;;;10.00;78.40;;;;;;5098440;28;20031;-54
2023/12/09 02:09:18;;;;;;;10.52;4.57;;;9.90;78.30;;;;;;5101440;28;20132;-56
2023/12/09 02:12:10;;;;;;;10.35;4.38;;;9.90;78.30;;;;;;5105271;28;20513;-55
2023/12/09 02:15:01;;;;;;;14.02;4.82;;;9.90;78.40;;;;;;5091355;28;20036;-55
2023/12/09 02:17:39;;;;;;;13.88;4.15;;;9.90;78.40;;;;;;5093260;28;20549;-56
2023/12/09 02:20:11;;;;;;;10.55;4.32;;;9.90;78.50;;;;;;5099722;28;20506;-56
2023/12/09 02:22:40;;;;;;;12.88;4.90;;;9.80;78.40;;;;;;5104446;28;20078;-55
2023/12/09 02:25:07;;;;;;;8.85;4.70;;;9.80;78.50;;;;;;5083647;28;20097;-54
2023/12/09 02:27:39;;;;;;;8.40;3.85;;;9.80;78.60;;;;;;5100362;28;20035;-52
2023/12/09 02:30:54;;;;;;;15.38;4.55;;;9.80;78.60;;;;;;5091511;28;20686;-56
2023/12/09 02:33:22;;;;;;;12.38;3.85;;;9.80;78.80;;;;;;5079151;28;20579;-52
2023/12/09 02:35:58;;;;;;;12.75;4.88;;;9.70;78.60;;;;;;5102749;28;20065;-54
2023/12/09 02:38:27;;;;;;;8.68;4.13;;;9.70;78.70;;;;;;5102232;28;20097;-54
2023/12/09 02:40:58;;;;;;;8.90;4.10;;;9.70;78.70;;;;;;5087861;28;20068;-53
2023/12/09 02:43:24;;;;;;;6.60;3.60;;;9.70;78.80;;;;;;5098115;28;20090;-56
2023/12/09 02:45:56;;;;;;;10.10;4.40;;;9.70;78.80;;;;;;5101080;28;20055;-56
2023/12/09 02:48:25;;;;;;;11.87;4.73;;;9.70;78.80;;;;;;5100484;28;20056;-53
2023/12/09 02:50:52;;;;;;;7.55;3.92;;;9.70;78.80;;;;;;5091262;28;20368;-55
2023/12/09 02:53:18;;;;;;;9.70;3.63;;;9.60;78.70;;;;;;5097289;28;20043;-56
2023/12/09 02:55:48;;;;;;;9.48;4.25;;;9.60;78.70;;;;;;5086921;28;20038;-55
2023/12/09 02:58:20;;;;;;;10.50;3.90;;;9.60;78.70;;;;;;5100346;28;20044;-55
2023/12/09 03:00:47;;;;;;;9.65;4.15;;;9.60;78.70;;;;;;5102960;28;20051;-56
2023/12/09 03:03:16;;;;;;;12.60;4.35;;;9.60;78.70;;;;;;5085767;28;20051;-55
2023/12/09 03:05:43;;;;;;;7.35;3.72;;;9.50;78.80;;;;;;5086659;28;20044;-53
2023/12/09 03:08:12;;;;;;;13.15;4.97;;;9.50;78.80;;;;;;5098808;28;20502;-56
2023/12/09 03:10:40;;;;;;;12.55;3.60;;;9.50;78.80;;;;;;5101792;28;20067;-56
2023/12/09 03:13:06;;;;;;;11.38;4.40;;;9.50;78.80;;;;;;5094756;28;20454;-55
2023/12/09 03:15:33;;;;;;;8.95;4.03;;;9.50;78.80;;;;;;5091918;28;20087;-52
2023/12/09 03:18:00;;;;;;;10.55;4.30;;;9.50;79.50;;;;;;5093746;28;20040;-53
2023/12/09 03:20:29;;;;;;;13.00;4.00;;;9.50;78.90;;;;;;5100041;28;20123;-56
2023/12/09 03:22:56;;;;;;;6.13;4.05;;;9.40;78.90;;;;;;5100560;28;20070;-55
2023/12/09 03:25:25;;;;;;;11.73;3.90;;;9.40;79.00;;;;;;5085228;28;20413;-52
2023/12/09 03:27:51;;;;;;;10.65;4.10;;;9.40;78.90;;;;;;5098875;28;20063;-55
2023/12/09 03:30:23;;;;;;;12.75;3.97;;;9.40;78.90;;;;;;5097537;28;20047;-52
2023/12/09 03:32:50;;;;;;;12.93;4.82;;;9.40;78.90;;;;;;5093644;28;20040;-56
2023/12/09 03:35:17;;;;;;;8.93;4.22;;;9.40;79.00;;;;;;5097468;28;20102;-55
2023/12/09 03:37:47;;;;;;;12.23;4.65;;;9.40;79.10;;;;;;5094975;28;20409;-53
2023/12/09 03:40:16;;;;;;;9.68;3.70;;;9.40;79.20;;;;;;5097630;28;20498;-52
2023/12/09 03:42:43;;;;;;;13.60;4.70;;;9.40;79.30;;;;;;5093843;28;20051;-56
2023/12/09 03:45:12;;;;;;;9.63;4.18;;;9.40;79.30;;;;;;5097084;28;20044;-56
2023/12/09 03:47:41;;;;;;;10.18;4.30;;;9.40;79.30;;;;;;5101179;28;20051;-56
2023/12/09 03:50:11;;;;;;;11.07;4.82;;;9.40;79.40;;;;;;5095185;28;20052;-54
2023/12/09 03:52:38;;;;;;;14.02;3.53;;;9.40;79.50;;;;;;5091177;28;20051;-53
2023/12/09 03:55:09;;;;;;;8.80;4.30;;;9.40;79.60;;;;;;5089213;28;20047;-56
2023/12/09 03:57:36;;;;;;;12.70;4.40;;;9.50;79.80;;;;;;5095841;28;20553;-56
2023/12/09 04:00:04;;;;;;;13.27;4.00;;;9.40;79.70;;;;;;5098145;28;20066;-53
2023/12/09 04:02:37;;;;;;;9.98;3.75;;;9.50;79.80;;;;;;5092730;28;20483;-56
2023/12/09 04:05:06;;;;;;;13.43;4.10;;;9.50;79.70;;;;;;5097647;28;20122;-56
2023/12/09 04:07:35;;;;;;;10.13;3.50;;;9.50;79.80;;;;;;5101762;28;20048;-54
2023/12/09 04:10:02;;;;;;;13.15;3.47;;;9.50;79.80;;;;;;5102280;28;20438;-56
2023/12/09 04:12:29;;;;;;;11.75;4.35;;;9.60;79.90;;;;;;5091741;28;20051;-56
2023/12/09 04:14:57;;;;;;;8.68;3.38;;;9.60;79.90;;;;;;5101350;28;20032;-53
2023/12/09 04:17:24;;;;;;;11.20;3.58;;;9.70;79.80;;;;;;5098012;28;20422;-56
2023/12/09 04:19:51;;;;;;;12.27;3.78;;;9.70;79.60;;;;;;5096770;28;20115;-56
2023/12/09 04:22:25;;;;;;;9.57;3.50;;;9.70;79.30;;;;;;5100143;28;20149;-56
2023/12/09 04:24:52;;;;;;;11.05;3.40;;;9.80;78.90;;;;;;5096335;28;20528;-56
2023/12/09 04:27:21;;;;;;;12.13;3.92;;;9.80;78.60;;;;;;5099787;28;20463;-55
2023/12/09 04:29:49;;;;;;;10.38;3.55;;;9.80;78.50;;;;;;5095976;28;20043;-52
2023/12/09 04:32:17;;;;;;;11.18;3.53;;;9.80;78.40;;;;;;5093908;28;20059;-53
2023/12/09 04:34:44;;;;;;;15.35;4.35;;;9.80;78.30;;;;;;5092062;28;20072;-55
2023/12/09 04:37:11;;;;;;;12.35;3.72;;;9.80;78.30;;;;;;5099760;28;20442;-56
2023/12/09 04:39:37;;;;;;;9.52;3.13;;;9.70;78.20;;;;;;5100843;28;20089;-56
2023/12/09 04:42:09;;;;;;;;;;;9.70;78.20;;;;;;5095243;28;20032;-55
2023/12/09 04:44:36;;;;;;;7.82;2.17;;;9.70;78.30;;;;;;5095425;28;20293;-56
2023/12/09 04:47:03;;;;;;;8.95;3.00;;;9.70;77.90;;;;;;5100630;28;20039;-54
2023/12/09 04:49:34;;;;;;;9.23;2.80;;;9.60;77.90;;;;;;5094114;28;20051;-56
2023/12/09 04:52:04;;;;;;;12.25;2.97;;;9.60;77.90;;;;;;5088323;28;20052;-56
2023/12/09 04:54:36;;;;;;;9.18;3.40;;;9.60;78.10;;;;;;5092176;28;20200;-55
2023/12/09 04:57:05;;;;;;;6.28;2.50;;;9.60;78.10;;;;;;5099068;28;20028;-56
2023/12/09 04:59:32;;;;;;;7.47;2.97;;;9.50;78.00;;;;;;5098941;28;20051;-56
2023/12/09 05:01:59;;;;;;;9.05;3.10;;;9.50;78.10;;;;;;5094038;28;20036;-56
2023/12/09 05:04:25;;;;;;;14.70;3.63;;;9.50;78.10;;;;;;5093328;28;20515;-55
2023/12/09 05:06:55;;;;;;;6.93;2.63;;;9.50;78.00;;;;;;5094308;28;20114;-56
2023/12/09 05:09:25;;;;;;;8.32;2.65;;;9.50;78.10;;;;;;5095375;28;20341;-56
2023/12/09 05:11:52;;;;;;;10.63;3.65;;;9.50;78.20;;;;;;5091070;28;20569;-56
2023/12/09 05:14:21;;;;;;;8.57;3.03;;;9.50;78.30;;;;;;5096776;28;20040;-55
2023/12/09 05:16:50;;;;;;;10.00;3.05;;;9.50;78.50;;;;;;5100197;28;20071;-56
2023/12/09 05:19:19;;;;;;;9.25;3.47;;;9.50;78.50;;;;;;5091590;28;20077;-54
2023/12/09 05:21:48;;;;;;;10.02;2.70;;;9.50;78.50;;;;;;5098882;28;20044;-56
2023/12/09 05:24:20;;;;;;;11.13;3.27;;;9.50;78.40;;;;;;5088194;28;20059;-56
2023/12/09 05:26:48;;;;;;;7.60;2.30;;;9.50;78.20;;;;;;5095770;28;20044;-56
2023/12/09 05:29:17;;;;;;;11.90;3.50;;;9.50;78.10;;;;;;5097013;28;20063;-55
2023/12/09 05:31:44;;;;;;;6.70;3.33;;;9.50;78.00;;;;;;5098609;28;20054;-56
2023/12/09 05:34:12;;;;;;;11.65;2.80;;;9.50;78.00;;;;;;5090838;28;20437;-55
2023/12/09 05:36:39;;;;;;;8.75;3.15;;;9.50;77.90;;;;;;5096170;28;20036;-56
2023/12/09 05:39:09;;;;;;;8.38;3.25;;;9.50;77.90;;;;;;5096508;28;20144;-54
2023/12/09 05:41:40;;;;;;;7.20;2.83;;;9.40;77.70;;;;;;5092271;28;20060;-56
2023/12/09 05:44:07;;;;;;;7.40;3.05;;;9.40;77.70;;;;;;5093014;28;20441;-57
2023/12/09 05:46:40;;;;;;;5.88;2.63;;;9.40;77.70;;;;;;5095863;28;20067;-55
2023/12/09 05:49:06;;;;;;;;;;;9.40;77.70;;;;;;5096601;28;20040;-55
2023/12/09 05:51:33;;;;;;;7.50;2.28;;;9.40;77.80;;;;;;5088031;28;19954;-56
2023/12/09 05:54:02;;;;;;;9.60;2.83;;;9.40;77.40;;;;;;5088569;28;20044;-55
2023/12/09 05:56:29;;;;;;;6.57;2.42;;;9.30;77.50;;;;;;5094250;28;20139;-56
2023/12/09 05:58:58;;;;;;;8.63;2.50;;;9.30;77.60;;;;;;5090935;28;20043;-56
2023/12/09 06:01:26;;;;;;;9.38;2.63;;;9.30;77.70;;;;;;5095208;28;20044;-54
2023/12/09 06:03:56;;;;;;;8.60;2.38;;;9.30;77.70;;;;;;5088462;28;20047;-55
2023/12/09 06:06:22;;;;;;;5.07;2.30;;;9.30;77.80;;;;;;5094730;22;20068;-48
2023/12/09 06:08:49;;;;;;;7.18;1.80;;;9.30;77.80;;;;;;5076425;28;20119;-47
2023/12/09 06:11:16;;;;;;;6.85;2.33;;;9.20;77.70;;;;;;5074716;28;20587;-49
2023/12/09 06:13:44;;;;;;;5.45;2.30;;;9.20;77.80;;;;;;5052846;28;20095;-50
2023/12/09 06:16:17;;;;;;;7.18;2.03;;;9.20;77.80;;;;;;5071063;28;20486;-50
2023/12/09 06:18:46;;;;;;;9.05;2.55;;;9.20;77.80;;;;;;5070348;28;20101;-48
2023/12/09 06:21:23;;;;;;;6.55;1.88;;;9.20;77.70;;;;;;5074136;28;20098;-47
2023/12/09 06:23:53;;;;;;;6.90;1.95;;;9.20;77.70;;;;;;5071716;28;20494;-47
2023/12/09 06:26:22;;;;;;;6.53;1.83;;;9.20;77.70;;;;;;5072054;28;20808;-51
2023/12/09 06:28:51;;;;;;;5.32;1.95;;;9.20;77.60;;;;;;5073258;28;20533;-48
2023/12/09 06:31:20;;;;;;;5.18;2.03;;;9.10;77.50;;;;;;5071432;28;20115;-47
2023/12/09 06:33:51;;;;;;;7.20;2.53;;;9.10;77.50;;;;;;5068347;28;20049;-50
2023/12/09 06:36:18;;;;;;;4.13;2.17;;;9.10;77.40;;;;;;5073603;28;20041;-46
2023/12/09 06:38:44;;;;;;;6.15;2.03;;;9.10;77.40;;;;;;5073413;28;20098;-47
2023/12/09 06:41:13;;;;;;;5.53;1.92;;;9.10;77.40;;;;;;5067949;28;20495;-47
2023/12/09 06:43:42;;;;;;;4.68;2.47;;;9.00;77.30;;;;;;5072671;28;20045;-47
2023/12/09 06:46:09;;;;;;;5.13;2.10;;;9.00;77.30;;;;;;5072115;28;20074;-47
2023/12/09 06:48:38;;;;;;;6.93;2.63;;;9.00;77.40;;;;;;5072712;28;20114;-52
2023/12/09 06:51:12;;;;;;;7.30;2.40;;;9.00;77.30;;;;;;5063099;28;20037;-48
2023/12/09 06:53:42;;;;;;;5.97;2.55;;;9.00;77.40;;;;;;5069909;28;20133;-47
2023/12/09 06:56:18;;;;;;;5.47;1.90;;;8.90;77.30;;;;;;5070004;28;20471;-48
2023/12/09 06:58:52;;;;;;;3.55;2.10;;;8.90;77.30;;;;;;5073502;28;20068;-46
2023/12/09 07:01:22;;;;;;;7.45;2.40;;;8.90;77.20;;;;;;5073146;28;20044;-47
2023/12/09 07:03:50;;;;;;;10.95;3.55;;;8.90;77.20;;;;;;5066171;28;20044;-48
2023/12/09 07:06:26;;;;;;;6.10;2.33;;;8.90;77.30;;;;;;5072746;28;20064;-48
2023/12/09 07:08:53;;;;;;;4.57;1.80;;;8.90;77.30;;;;;;5068267;28;20055;-46
2023/12/09 07:11:22;;;;;;;4.78;2.75;;;8.80;77.30;;;;;;5067549;28;20076;-47
2023/12/09 07:13:52;;;;;;;7.63;2.58;;;8.80;77.20;;;;;;5070435;28;20049;-47
2023/12/09 07:16:19;;;;;;;6.93;2.42;;;8.80;77.30;;;;;;5068139;28;20041;-47
2023/12/09 07:18:47;;;;;;;5.72;3.05;;;8.80;77.20;;;;;;5063605;28;20041;-47
2023/12/09 07:21:15;;;;;;;6.50;2.03;;;8.80;77.20;;;;;;5065806;28;20050;-46
2023/12/09 07:23:46;;;;;;;7.13;2.42;;;8.80;77.20;;;;;;5050647;28;20065;-47
2023/12/09 07:26:13;;;;;;;7.32;2.67;;;8.70;77.10;;;;;;5065879;28;20484;-47
2023/12/09 07:28:40;;;;;;;7.53;2.53;;;8.70;77.10;;;;;;5068549;28;20044;-54
2023/12/09 07:31:06;;;;;;;6.70;2.40;;;8.70;77.00;;;;;;5069497;28;20114;-47
2023/12/09 07:33:38;;;;;;;6.57;2.78;;;8.70;77.00;;;;;;5050719;28;20114;-48
2023/12/09 07:36:08;;;;;;;5.65;2.35;;;8.70;77.00;;;;;;5066039;28;20041;-50
2023/12/09 07:38:34;;;;;;;7.28;3.22;;;8.60;77.00;;;;;;5052567;28;20494;-51
2023/12/09 07:41:01;;;;;;;7.05;2.15;;;8.60;77.10;;;;;;5068855;28;20091;-52
2023/12/09 07:43:28;;;;;;;8.23;2.65;;;8.60;77.20;;;;;;5069488;28;20049;-53
2023/12/09 07:45:54;;;;;;;4.20;1.92;;;8.60;77.20;;;;;;5071854;28;20098;-51
2023/12/09 07:48:21;;;;;;;5.97;1.90;;;8.60;77.30;;;;;;5064250;28;20116;-51
2023/12/09 07:50:48;;;;;;;4.10;1.95;;;8.60;77.40;;;;;;5061156;28;20044;-51
2023/12/09 07:53:15;;;;;;;5.72;2.55;;;8.60;77.40;;;;;;5060673;28;20036;-50
2023/12/09 07:55:41;;;;;;;6.63;2.42;;;8.60;77.50;;;;;;5059726;28;20120;-52
2023/12/09 07:58:08;;;;;;;7.28;2.63;;;8.60;77.50;;;;;;5067630;28;20116;-49
2023/12/09 08:00:35;;;;;;;8.98;2.70;;;8.70;77.60;;;;;;5073728;28;20059;-51
2023/12/09 08:03:04;;;;;;;6.00;2.47;;;8.70;77.60;;;;;;5072146;28;20036;-53
2023/12/09 08:05:38;;;;;;;2.83;1.77;;;8.70;77.60;;;;;;5054280;28;20050;-49
2023/12/09 08:08:05;;;;;;;4.43;2.30;;;8.70;78.30;;;;;;5074413;28;20090;-51
2023/12/09 08:10:32;;;;;;;6.32;2.83;;;8.70;77.60;;;;;;5073789;28;20040;-52
2023/12/09 08:12:58;;;;;;;6.47;2.05;;;8.80;77.60;;;;;;5070347;28;20041;-52
2023/12/09 08:15:25;;;;;;;4.55;2.63;;;8.80;77.60;;;;;;5069826;28;20064;-51
2023/12/09 08:17:52;;;;;;;5.95;2.67;;;8.80;77.60;;;;;;5072734;28;20040;-47
2023/12/09 08:20:19;;;;;;;5.53;2.85;;;8.80;77.50;;;;;;5070759;28;20045;-50
2023/12/09 08:22:45;;;;;;;7.75;3.35;;;8.80;77.50;;;;;;5058592;28;20047;-53
2023/12/09 08:25:12;;;;;;;5.63;3.03;;;8.90;77.50;;;;;;5065657;28;20083;-50
2023/12/09 08:27:39;;;;;;;6.07;3.53;;;8.90;77.50;;;;;;5069270;28;20063;-51
2023/12/09 08:30:10;;;;;;;7.20;3.90;;;8.90;77.30;;;;;;5070269;28;20139;-51
2023/12/09 08:32:39;;;;;;;6.05;3.65;;;9.00;77.20;;;;;;5066183;28;20114;-52
2023/12/09 08:35:06;;;;;;;8.45;3.65;;;8.90;77.10;;;;;;5072814;28;20068;-50
2023/12/09 08:37:37;;;;;;;6.90;3.28;;;9.00;77.10;;;;;;5071860;28;20044;-52
2023/12/09 08:40:10;;;;;;;9.30;3.45;;;9.00;77.00;;;;;;5065122;28;20055;-53
2023/12/09 08:42:42;;;;;;;8.13;3.30;;;9.00;77.00;;;;;;5072315;28;20048;-52
2023/12/09 08:45:10;;;;;;;4.53;2.85;;;9.00;77.10;;;;;;5068545;28;20472;-48
2023/12/09 08:47:38;;;;;;;6.55;3.08;;;9.00;77.10;;;;;;5071437;28;20055;-52
2023/12/09 08:50:09;;;;;;;11.38;3.38;;;9.10;77.20;;;;;;5069176;28;20068;-51
2023/12/09 08:52:52;;;;;;;6.22;2.70;;;9.10;77.20;;;;;;5052830;28;20046;-51
2023/12/09 08:55:20;;;;;;;5.25;2.72;;;9.10;77.10;;;;;;5070016;28;20494;-52
2023/12/09 08:57:48;;;;;;;6.78;2.92;;;9.20;77.20;;;;;;5074071;28;20380;-53
2023/12/09 09:00:20;;;;;;;6.70;2.58;;;9.20;77.20;;;;;;5062670;28;20430;-51
2023/12/09 09:02:48;;;;;;;4.80;2.72;;;9.30;77.20;;;;;;5068854;28;20040;-49
2023/12/09 09:05:17;;;;;;;8.43;2.83;;;9.30;77.10;;;;;;5066995;28;20041;-52
2023/12/09 09:07:44;;;;;;;5.38;3.15;;;9.30;77.10;;;;;;5081123;28;20048;-50
2023/12/09 09:10:14;;;;;;;5.97;2.40;;;9.40;77.00;;;;;;5080146;28;20094;-51
2023/12/09 09:12:43;;;;;;;5.57;2.58;;;9.40;76.80;;;;;;5076380;28;20119;-48
2023/12/09 09:15:10;;;;;;;11.45;3.28;;;9.40;76.70;;;;;;5074051;28;20037;-49
2023/12/09 09:17:37;;;;;;;7.30;2.85;;;9.50;76.70;;;;;;5070539;28;20036;-48
2023/12/09 09:20:06;;;;;;;7.95;2.88;;;9.50;76.70;;;;;;5071119;28;20036;-50
2023/12/09 09:22:33;;;;;;;5.43;2.70;;;9.50;76.70;;;;;;5088290;28;20085;-50
2023/12/09 09:25:02;;;;;;;7.30;3.05;;;9.50;76.60;;;;;;5073219;28;20045;-51
2023/12/09 09:27:29;;;;;;;8.35;3.55;;;9.60;76.70;;;;;;5070853;28;20144;-53
2023/12/09 09:29:56;;;;;;;4.03;2.50;;;9.60;76.60;;;;;;5071563;28;20097;-49
2023/12/09 09:32:23;;;;;;;6.40;3.38;;;9.60;76.60;;;;;;5067491;28;20051;-53
2023/12/09 09:34:49;;;;;;;6.72;3.97;;;9.60;76.60;;;;;;5071751;28;20406;-50
2023/12/09 09:37:16;;;;;;;6.30;3.30;;;9.70;76.70;;;;;;5070993;28;20119;-51
2023/12/09 09:39:43;;;;;;;7.43;3.30;;;9.70;76.70;;;;;;5069660;28;20041;-52
2023/12/09 09:42:31;;;;;;;5.65;3.83;;;9.70;76.60;;;;;;5067381;28;20036;-46
2023/12/09 09:45:20;;;;;;;6.78;2.92;;;9.80;76.60;;;;;;5071365;28;20087;-51
2023/12/09 09:47:52;;;;;;;7.80;2.53;;;9.80;76.40;;;;;;5071232;28;20280;-50
2023/12/09 09:50:22;;;;;;;6.90;3.67;;;9.80;76.40;;;;;;5060428;28;20462;-51
2023/12/09 09:52:49;;;;;;;7.10;3.45;;;9.90;76.40;;;;;;5071194;28;20033;-54
2023/12/09 09:55:19;;;;;;;9.10;3.75;;;9.90;76.40;;;;;;5066869;28;20060;-52
2023/12/09 09:57:47;;;;;;;5.22;3.80;;;9.90;76.40;;;;;;5067245;28;20538;-51
2023/12/09 10:00:16;;;;;;;8.43;4.80;;;9.90;76.50;;;;;;5069827;28;20044;-52
2023/12/09 10:02:47;;;;;;;7.88;3.65;;;10.00;76.70;;;;;;5068088;28;20518;-51
2023/12/09 10:05:16;;;;;;;7.10;3.53;;;10.00;76.80;;;;;;5067691;28;20503;-53
2023/12/09 10:07:44;;;;;;;7.07;3.15;;;10.10;76.90;;;;;;5061485;28;20037;-51
2023/12/09 10:10:13;;;;;;;6.65;3.92;;;10.10;76.90;;;;;;5080533;28;20075;-51
2023/12/09 10:12:40;;;;;;;7.82;3.53;;;10.20;77.10;;;;;;5075199;28;20048;-50
2023/12/09 10:15:07;;;;;;;5.80;3.20;;;10.30;77.20;;;;;;5074976;28;20090;-51
2023/12/09 10:17:35;;;;;;;6.88;2.85;;;10.30;77.30;;;;;;5068749;28;20040;-50
2023/12/09 10:20:05;;;;;;;5.22;2.90;;;10.40;77.30;;;;;;5068446;28;20090;-52
2023/12/09 10:22:32;;;;;;;10.88;4.03;;;10.50;77.30;;;;;;5076099;28;20426;-48
2023/12/09 10:24:59;;;;;;;9.30;3.40;;;10.60;77.30;;;;;;5067888;28;20480;-51
2023/12/09 10:27:26;;;;;;;5.80;3.00;;;10.70;77.20;;;;;;5069074;28;20515;-51
2023/12/09 10:29:55;;;;;;;7.07;3.42;;;10.80;77.10;;;;;;5069640;28;20041;-53
2023/12/09 10:32:24;;;;;;;12.82;3.70;;;10.80;76.80;;;;;;5068853;28;20141;-52
2023/12/09 10:34:52;;;;;;;7.38;2.28;;;10.90;76.70;;;;;;5075110;28;20043;-48
2023/12/09 10:37:19;;;;;;;7.55;1.95;;;11.00;76.50;;;;;;5077243;28;20047;-51
2023/12/09 10:39:47;;;;;;;8.38;2.25;;;11.00;76.40;;;;;;5083198;28;20038;-52
2023/12/09 10:42:14;;;;;;;8.30;2.03;;;11.00;76.30;;;;;;5082848;28;20037;-49
2023/12/09 10:44:41;;;;;;;4.30;1.83;;;11.00;76.20;;;;;;5066715;28;20043;-50
2023/12/09 10:47:09;;;;;;;4.07;2.08;;;11.10;76.10;;;;;;5061947;28;20392;-52
2023/12/09 10:49:36;;;;;;;5.93;1.60;;;11.10;76.00;;;;;;5081450;28;20044;-51
2023/12/09 10:52:04;;;;;;;7.32;1.85;;;11.20;76.00;;;;;;5083979;28;20036;-52
2023/12/09 10:54:31;;;;;;;8.40;2.33;;;11.20;75.90;;;;;;5067981;28;20045;-54
2023/12/09 10:56:58;;;;;;;9.63;2.40;;;11.20;75.90;;;;;;5068589;28;20106;-52
2023/12/09 10:59:28;;;;;;;5.65;2.50;;;11.30;75.70;;;;;;5065171;28;20579;-52
2023/12/09 11:01:56;;;;;;;5.38;1.88;;;11.30;75.70;;;;;;5074006;28;20036;-53
2023/12/09 11:04:24;;;;;;;6.72;2.40;;;11.30;75.60;;;;;;5063542;28;20101;-51
2023/12/09 11:06:54;;;;;;;5.22;2.05;;;11.30;75.50;;;;;;5050078;28;1015337;-50
2023/12/09 11:09:22;;;;;;;6.47;2.03;;;11.40;75.50;;;;;;5068926;28;20318;-51
2023/12/09 11:11:48;;;;;;;6.15;1.60;;;11.40;75.40;;;;;;5075944;28;20114;-50
2023/12/09 11:14:15;;;;;;;6.72;2.30;;;11.40;75.30;;;;;;5072818;28;20063;-51
2023/12/09 11:16:43;;;;;;;3.65;1.70;;;11.40;75.20;;;;;;5064387;28;20041;-54
2023/12/09 11:19:16;;;;;;;5.55;2.10;;;11.50;75.10;;;;;;5068764;28;20063;-47
2023/12/09 11:21:47;;;;;;;5.25;2.28;;;11.50;75.10;;;;;;5068824;28;20128;-50
2023/12/09 11:24:17;;;;;;;5.45;2.30;;;11.50;75.10;;;;;;5065474;28;20106;-48
2023/12/09 11:26:47;;;;;;;5.35;1.67;;;11.50;75.60;;;;;;5065212;28;20036;-49
2023/12/09 11:29:17;;;;;;;7.13;1.73;;;11.60;75.00;;;;;;5072360;28;20558;-48
2023/12/09 11:31:48;;;;;;;4.05;1.33;;;11.60;75.00;;;;;;5071581;28;20090;-50
2023/12/09 11:34:18;;;;;;;2.35;1.35;;;11.60;74.90;;;;;;5061758;28;20054;-49
2023/12/09 11:36:47;;;;;;;4.00;1.50;;;11.60;74.90;;;;;;5076536;28;20525;-54
2023/12/09 11:39:17;;;;;;;2.25;1.33;;;11.70;75.00;;;;;;5069402;28;20521;-51
2023/12/09 11:41:45;;;;;;;5.75;1.60;;;11.70;75.10;;;;;;5063223;28;20033;-50
2023/12/09 11:44:14;;;;;;;4.13;1.42;;;11.70;75.10;;;;;;5068898;28;20090;-51
2023/12/09 11:46:41;;;;;;;3.28;0.95;;;11.70;75.20;;;;;;5069410;28;20047;-50
2023/12/09 11:49:08;;;;;;;4.18;1.85;;;11.80;75.20;;;;;;5068884;28;20060;-53
2023/12/09 11:51:37;;;;;;;5.78;1.13;;;11.80;75.10;;;;;;5066757;28;20072;-48
2023/12/09 11:54:07;;;;;;;3.28;1.23;;;11.80;75.00;;;;;;5066228;28;20098;-51
2023/12/09 11:56:34;;;;;;;3.05;1.55;;;11.90;75.10;;;;;;5069171;28;20048;-51
2023/12/09 11:59:01;;;;;;;2.60;1.17;;;11.90;75.10;;;;;;5066958;28;20032;-51
2023/12/09 12:01:29;;;;;;;1.90;1.15;;;11.90;74.90;;;;;;5074075;28;20406;-51
2023/12/09 12:03:56;;;;;;;5.93;1.30;;;11.90;74.80;;;;;;5076460;28;20029;-51
2023/12/09 12:06:24;;;;;;;2.15;1.30;;;12.00;74.80;;;;;;5082561;28;20045;-52
2023/12/09 12:08:52;;;;;;;2.30;0.80;;;12.00;74.70;;;;;;5075248;28;20128;-49
2023/12/09 12:11:23;;;;;;;1.45;0.95;;;12.00;74.70;;;;;;5064495;28;20109;-48
2023/12/09 12:13:51;;;;;;;1.83;1.00;;;12.00;74.80;;;;;;5075032;28;20502;-48
2023/12/09 12:16:18;;;;;;;2.13;1.33;;;12.00;74.80;;;;;;5067837;28;20040;-48
2023/12/09 12:18:46;;;;;;;1.75;1.00;;;12.00;74.90;;;;;;5081624;28;20398;-53
2023/12/09 12:21:14;;;;;;;2.33;1.08;;;12.00;74.90;;;;;;5074796;28;20062;-50
2023/12/09 12:23:41;;;;;;;3.13;0.90;;;12.00;74.90;;;;;;5074616;28;20057;-47
2023/12/09 12:26:09;;;;;;;1.63;0.88;;;12.00;75.00;;;;;;5067784;28;20477;-50
2023/12/09 12:28:38;;;;;;;2.42;1.58;;;12.00;75.20;;;;;;5070073;28;20063;-51
2023/12/09 12:31:06;;;;;;;3.75;1.30;;;12.00;75.10;;;;;;5073714;28;20040;-48
2023/12/09 12:33:34;;;;;;;3.85;0.50;;;12.00;75.00;;;;;;5069483;28;20047;-54
2023/12/09 12:36:01;;;;;;;5.10;1.35;;;12.00;75.10;;;;;;5074769;28;20036;-48
2023/12/09 12:38:29;;;;;;;2.90;0.88;;;12.00;75.20;;;;;;5041849;28;20043;-50
2023/12/09 12:40:57;;;;;;;2.13;1.17;;;12.00;75.40;;;;;;5069554;22;20052;-55
2023/12/09 12:43:28;;;;;;;3.65;1.70;;;11.90;75.30;;;;;;5046157;28;20048;-55
2023/12/09 12:45:58;;;;;;;3.70;1.52;;;11.90;75.40;;;;;;5046868;28;20045;-56
2023/12/09 12:48:25;;;;;;;1.20;0.80;;;11.90;75.30;;;;;;5050522;28;20045;-58
2023/12/09 12:50:52;;;;;;;2.15;0.95;;;11.90;75.20;;;;;;5039102;28;20052;-57
2023/12/09 12:53:22;;;;;;;1.77;1.48;;;11.90;75.20;;;;;;5038106;28;20054;-57
2023/12/09 12:55:49;;;;;;;2.95;1.27;;;11.80;75.10;;;;;;5038213;28;20042;-58
2023/12/09 12:58:18;;;;;;;3.05;2.22;;;11.90;75.20;;;;;;5046921;28;20068;-58